Time;durP1;ratioP1;P1;durP2;ratioP2;P2;SDS_P1;SDS_P2;PMS_P1;PMS_P2;Temp;Humidity;BMP_temperature;BMP_pressure;BME280_temperature;BME280_humidity;BME280_pressure;Samples;Min_cycle;Max_cycle;Signal;HPM_P1;HPM_P2
2021/11/20 00:01:51;;;;;;;14.53;13.93;;;19.50;99.90;;;;;;4954021;29;20930;-51
2021/11/20 00:04:19;;;;;;;14.33;13.83;;;19.50;99.90;;;;;;4954181;29;21034;-51
2021/11/20 00:06:49;;;;;;;14.87;14.23;;;19.60;99.90;;;;;;4954218;29;20918;-49
2021/11/20 00:09:19;;;;;;;14.40;13.80;;;19.70;99.90;;;;;;4953872;29;20457;-47
2021/11/20 00:11:49;;;;;;;13.70;13.20;;;19.70;99.90;;;;;;4954086;29;20463;-47
2021/11/20 00:14:16;;;;;;;14.83;13.93;;;19.60;99.90;;;;;;4953814;29;20492;-48
2021/11/20 00:16:46;;;;;;;14.60;14.07;;;19.50;99.90;;;;;;4954062;29;20818;-50
2021/11/20 00:19:14;;;;;;;14.43;13.90;;;19.50;99.90;;;;;;4953749;29;20456;-47
2021/11/20 00:21:45;;;;;;;14.00;13.50;;;19.50;99.90;;;;;;4954007;29;20539;-47
2021/11/20 00:24:21;;;;;;;14.10;13.60;;;19.60;99.90;;;;;;4953858;29;20449;-47
2021/11/20 00:26:50;;;;;;;13.90;13.40;;;19.60;99.90;;;;;;4953851;29;20445;-47
2021/11/20 00:29:25;;;;;;;15.10;14.60;;;19.60;99.90;;;;;;4953658;29;20448;-47
2021/11/20 00:31:55;;;;;;;13.80;13.30;;;19.50;99.90;;;;;;4953907;29;20467;-49
2021/11/20 00:34:25;;;;;;;16.87;16.17;;;19.50;99.90;;;;;;4953693;29;20493;-47
2021/11/20 00:36:53;;;;;;;14.80;14.30;;;19.50;99.90;;;;;;4953557;29;20535;-50
2021/11/20 00:39:23;;;;;;;14.47;13.97;;;19.60;99.90;;;;;;4953583;29;20444;-50
2021/11/20 00:41:52;;;;;;;13.03;12.63;;;19.60;99.90;;;;;;4953663;29;20455;-48
2021/11/20 00:44:20;;;;;;;13.80;13.30;;;19.60;99.90;;;;;;4953564;29;20449;-46
2021/11/20 00:46:49;;;;;;;13.50;13.10;;;19.60;99.90;;;;;;4953617;29;20543;-49
2021/11/20 00:49:17;;;;;;;15.50;14.70;;;19.60;99.90;;;;;;4953364;29;20543;-47
2021/11/20 00:51:44;;;;;;;14.97;14.37;;;19.60;99.90;;;;;;4954228;28;20452;-48
2021/11/20 00:54:12;;;;;;;14.13;13.63;;;19.60;99.90;;;;;;4972922;28;20828;-48
2021/11/20 00:56:39;;;;;;;14.47;13.93;;;19.60;99.90;;;;;;4972625;28;20456;-49
2021/11/20 00:59:08;;;;;;;13.87;13.37;;;19.60;99.90;;;;;;4972443;28;20549;-46
2021/11/20 01:01:38;;;;;;;15.07;14.47;;;19.70;99.90;;;;;;4972708;28;20947;-46
2021/11/20 01:04:06;;;;;;;14.43;13.93;;;19.70;99.90;;;;;;4972816;28;20447;-48
2021/11/20 01:06:33;;;;;;;14.37;13.87;;;19.70;99.90;;;;;;4972658;28;20450;-47
2021/11/20 01:09:02;;;;;;;14.20;13.70;;;19.70;99.90;;;;;;4972359;28;20478;-47
2021/11/20 01:11:32;;;;;;;14.77;14.17;;;19.70;99.90;;;;;;4972911;28;20475;-49
2021/11/20 01:14:02;;;;;;;13.70;13.20;;;19.70;99.90;;;;;;4976536;28;20456;-47
2021/11/20 01:16:32;;;;;;;14.10;13.63;;;19.70;99.90;;;;;;4976615;28;20555;-52
2021/11/20 01:19:00;;;;;;;14.30;13.80;;;19.70;99.90;;;;;;4976284;28;20474;-52
2021/11/20 01:21:28;;;;;;;15.60;15.00;;;19.70;99.90;;;;;;4976474;28;20456;-51
2021/11/20 01:23:55;;;;;;;14.97;14.37;;;19.70;99.90;;;;;;4976440;28;20439;-46
2021/11/20 01:26:23;;;;;;;13.90;13.40;;;19.70;99.90;;;;;;4976325;28;20451;-46
2021/11/20 01:28:52;;;;;;;14.10;13.70;;;19.70;99.90;;;;;;4975927;28;20566;-54
2021/11/20 01:31:21;;;;;;;14.77;14.27;;;19.70;99.90;;;;;;4976464;28;20452;-49
2021/11/20 01:33:50;;;;;;;14.60;14.10;;;19.70;99.90;;;;;;4976280;28;20455;-52
2021/11/20 01:36:19;;;;;;;14.07;13.67;;;19.60;99.90;;;;;;4976236;28;21031;-49
2021/11/20 01:38:47;;;;;;;14.80;14.30;;;19.60;99.90;;;;;;4975884;28;20846;-54
2021/11/20 01:41:15;;;;;;;14.63;14.13;;;19.70;99.90;;;;;;4976078;28;20450;-51
2021/11/20 01:43:42;;;;;;;14.13;13.63;;;19.60;99.90;;;;;;4976188;28;20816;-49
2021/11/20 01:46:14;;;;;;;14.57;13.87;;;19.70;99.90;;;;;;4976015;28;20940;-47
2021/11/20 01:49:01;;;;;;;14.80;14.30;;;19.70;99.90;;;;;;4975960;28;20472;-47
2021/11/20 01:51:31;;;;;;;14.40;13.90;;;19.70;99.90;;;;;;4975885;28;20456;-47
2021/11/20 01:54:09;;;;;;;15.07;14.47;;;19.60;99.90;;;;;;4957203;28;20453;-50
2021/11/20 01:56:45;;;;;;;14.90;14.30;;;19.60;99.90;;;;;;4956537;29;20448;-54
2021/11/20 01:59:26;;;;;;;14.60;14.10;;;19.60;99.90;;;;;;4956148;29;20905;-47
2021/11/20 02:01:59;;;;;;;14.33;13.73;;;19.70;99.90;;;;;;4956501;29;20448;-47
2021/11/20 02:04:32;;;;;;;14.73;14.13;;;19.70;99.90;;;;;;4956522;29;20451;-47
2021/11/20 02:07:07;;;;;;;13.87;13.37;;;19.60;99.90;;;;;;4956373;29;20451;-47
2021/11/20 02:09:38;;;;;;;14.53;14.03;;;19.60;99.90;;;;;;4956087;29;20785;-48
2021/11/20 02:12:08;;;;;;;13.80;13.40;;;19.60;99.90;;;;;;4956336;29;20452;-48
2021/11/20 02:14:35;;;;;;;15.30;14.70;;;19.60;99.90;;;;;;4956091;29;20488;-46
2021/11/20 02:17:07;;;;;;;15.20;14.70;;;19.60;99.90;;;;;;4956270;29;20817;-46
2021/11/20 02:19:38;;;;;;;15.23;14.63;;;19.70;99.90;;;;;;4955991;29;20452;-46
2021/11/20 02:22:10;;;;;;;16.20;15.50;;;19.60;99.90;;;;;;4956220;29;20463;-50
2021/11/20 02:24:36;;;;;;;14.13;13.63;;;19.60;99.90;;;;;;4956025;29;20954;-46
2021/11/20 02:27:07;;;;;;;13.97;13.50;;;19.60;99.90;;;;;;4955844;29;20451;-48
2021/11/20 02:29:44;;;;;;;14.17;13.67;;;19.60;99.90;;;;;;4955716;29;20451;-46
2021/11/20 02:32:14;;;;;;;13.73;13.33;;;19.50;99.90;;;;;;4955920;29;20444;-50
2021/11/20 02:34:42;;;;;;;14.73;14.23;;;19.50;99.90;;;;;;4955768;29;20488;-48
2021/11/20 02:37:10;;;;;;;15.30;14.80;;;19.50;99.90;;;;;;4955689;29;20568;-46
2021/11/20 02:39:38;;;;;;;14.40;13.90;;;19.50;99.90;;;;;;4955586;29;20512;-51
2021/11/20 02:42:08;;;;;;;14.47;13.97;;;19.50;99.90;;;;;;4955703;29;20449;-49
2021/11/20 02:44:36;;;;;;;14.90;14.40;;;19.50;99.90;;;;;;4955984;29;20818;-49
2021/11/20 02:47:06;;;;;;;14.37;13.80;;;19.50;99.90;;;;;;4955715;29;20455;-48
2021/11/20 02:49:35;;;;;;;14.87;14.27;;;19.50;99.90;;;;;;4955471;29;20444;-51
2021/11/20 02:52:07;;;;;;;13.87;13.47;;;19.50;99.90;;;;;;4958698;28;20785;-50
2021/11/20 02:54:34;;;;;;;14.13;13.73;;;19.40;99.90;;;;;;4974807;28;20455;-49
2021/11/20 02:57:06;;;;;;;14.87;14.37;;;19.40;99.90;;;;;;4974764;28;20514;-46
2021/11/20 02:59:33;;;;;;;14.43;13.93;;;19.50;99.90;;;;;;4974461;28;20451;-47
2021/11/20 03:02:00;;;;;;;14.17;13.67;;;19.50;99.90;;;;;;4974660;28;20942;-49
2021/11/20 03:04:28;;;;;;;15.03;14.53;;;19.40;99.90;;;;;;4974772;28;20447;-46
2021/11/20 03:06:58;;;;;;;15.30;14.80;;;19.40;99.90;;;;;;4974659;28;20464;-47
2021/11/20 03:09:27;;;;;;;14.10;13.60;;;19.40;99.90;;;;;;4974395;28;20456;-47
2021/11/20 03:11:55;;;;;;;15.07;14.57;;;19.40;99.90;;;;;;4974710;28;21085;-50
2021/11/20 03:14:22;;;;;;;14.30;13.80;;;19.40;99.90;;;;;;4974484;28;20466;-51
2021/11/20 03:16:51;;;;;;;14.33;13.83;;;19.40;99.90;;;;;;4974232;28;20480;-46
2021/11/20 03:19:19;;;;;;;14.50;14.00;;;19.40;99.90;;;;;;4974070;28;20452;-47
2021/11/20 03:21:50;;;;;;;14.20;13.60;;;19.40;99.90;;;;;;4974414;28;20455;-47
2021/11/20 03:24:20;;;;;;;14.03;13.53;;;19.40;99.90;;;;;;4974215;28;20456;-50
2021/11/20 03:26:47;;;;;;;13.50;13.10;;;19.40;99.90;;;;;;4974373;28;20938;-52
2021/11/20 03:29:14;;;;;;;13.93;13.47;;;19.30;99.90;;;;;;4973796;28;20544;-47
2021/11/20 03:31:42;;;;;;;15.80;15.20;;;19.40;99.90;;;;;;4974202;28;20837;-47
2021/11/20 03:34:09;;;;;;;14.20;13.70;;;19.40;99.90;;;;;;4973632;28;20807;-52
2021/11/20 03:36:36;;;;;;;14.33;13.83;;;19.30;99.90;;;;;;4973823;28;20483;-53
2021/11/20 03:39:04;;;;;;;15.80;15.20;;;19.30;99.90;;;;;;4973660;28;20470;-52
2021/11/20 03:41:32;;;;;;;15.47;14.77;;;19.30;99.90;;;;;;4973802;28;20444;-47
2021/11/20 03:43:59;;;;;;;14.53;14.03;;;19.30;99.90;;;;;;4973889;28;20455;-47
2021/11/20 03:46:27;;;;;;;15.07;14.57;;;19.30;99.90;;;;;;4973821;28;20446;-48
2021/11/20 03:48:54;;;;;;;15.00;14.40;;;19.30;99.90;;;;;;4973529;28;20479;-51
2021/11/20 03:51:21;;;;;;;15.20;14.60;;;19.30;99.90;;;;;;4973707;28;20943;-54
2021/11/20 03:53:48;;;;;;;15.23;14.60;;;19.30;99.90;;;;;;4956414;28;20448;-52
2021/11/20 03:56:14;;;;;;;14.07;13.57;;;19.40;99.90;;;;;;4954362;29;20489;-47
2021/11/20 03:58:42;;;;;;;14.90;14.37;;;19.40;99.90;;;;;;4954096;29;20465;-52
2021/11/20 04:01:13;;;;;;;15.00;14.40;;;19.50;99.90;;;;;;4962033;28;20538;-52
2021/11/20 04:03:42;;;;;;;13.90;13.40;;;19.30;99.90;;;;;;4973688;28;20928;-47
2021/11/20 04:06:12;;;;;;;13.70;13.20;;;19.30;99.90;;;;;;4973509;28;20448;-48
2021/11/20 04:08:39;;;;;;;14.57;13.87;;;19.30;99.90;;;;;;4973290;28;20506;-47
2021/11/20 04:11:07;;;;;;;13.60;13.20;;;19.30;99.90;;;;;;4973420;28;20455;-47
2021/11/20 04:13:34;;;;;;;15.23;14.63;;;19.30;99.90;;;;;;4973325;28;20448;-50
2021/11/20 04:16:03;;;;;;;16.13;15.37;;;19.30;99.90;;;;;;4973332;28;20560;-47
2021/11/20 04:18:30;;;;;;;14.70;14.20;;;19.30;99.90;;;;;;4973148;28;20566;-48
2021/11/20 04:20:57;;;;;;;14.33;13.83;;;19.40;99.90;;;;;;4973153;28;20446;-47
2021/11/20 04:23:24;;;;;;;15.07;14.47;;;19.30;99.90;;;;;;4973226;28;20444;-48
2021/11/20 04:25:51;;;;;;;13.53;13.10;;;19.30;99.90;;;;;;4973186;28;20444;-47
2021/11/20 04:28:19;;;;;;;14.07;13.57;;;19.30;99.90;;;;;;4973441;28;20571;-49
2021/11/20 04:30:46;;;;;;;14.63;14.13;;;19.30;99.90;;;;;;4972991;28;20458;-51
2021/11/20 04:33:16;;;;;;;14.90;14.40;;;19.30;99.90;;;;;;4973049;28;20454;-52
2021/11/20 04:35:43;;;;;;;13.33;12.93;;;19.20;99.90;;;;;;4973015;28;20519;-49
2021/11/20 04:38:11;;;;;;;14.07;13.57;;;19.20;99.90;;;;;;4972832;28;20486;-53
2021/11/20 04:40:38;;;;;;;14.67;14.17;;;19.20;99.90;;;;;;4972747;28;20448;-50
2021/11/20 04:43:05;;;;;;;14.33;13.80;;;19.20;99.90;;;;;;4972984;28;20444;-49
2021/11/20 04:45:33;;;;;;;13.93;13.43;;;19.30;99.90;;;;;;4972834;28;20837;-50
2021/11/20 04:48:01;;;;;;;13.20;12.70;;;19.20;99.90;;;;;;4972318;28;20665;-54
2021/11/20 04:50:30;;;;;;;15.10;14.50;;;19.30;99.90;;;;;;4972709;28;20456;-49
2021/11/20 04:52:57;;;;;;;14.43;13.83;;;19.30;99.90;;;;;;4962074;28;20445;-54
2021/11/20 04:55:24;;;;;;;13.83;13.33;;;19.30;99.90;;;;;;4953432;29;20542;-50
2021/11/20 04:57:51;;;;;;;15.07;14.47;;;19.30;99.90;;;;;;4953479;29;20469;-50
2021/11/20 05:00:21;;;;;;;14.40;13.90;;;19.30;99.90;;;;;;4953286;29;20452;-51
2021/11/20 05:02:48;;;;;;;14.57;13.97;;;19.20;99.90;;;;;;4953497;29;20456;-49
2021/11/20 05:05:16;;;;;;;16.17;15.33;;;19.30;99.90;;;;;;4953423;29;20453;-52
2021/11/20 05:07:44;;;;;;;15.13;14.53;;;19.30;99.90;;;;;;4953254;29;21037;-50
2021/11/20 05:10:13;;;;;;;13.83;13.43;;;19.30;99.90;;;;;;4953189;29;20544;-51
2021/11/20 05:12:41;;;;;;;13.80;13.40;;;19.30;99.90;;;;;;4953245;29;20449;-49
2021/11/20 05:15:11;;;;;;;15.30;14.70;;;19.30;99.90;;;;;;4953465;29;20557;-49
2021/11/20 05:17:37;;;;;;;13.80;13.40;;;19.30;99.90;;;;;;4953095;29;20487;-48
2021/11/20 05:20:06;;;;;;;13.87;13.37;;;19.30;99.90;;;;;;4953156;29;20827;-51
2021/11/20 05:22:32;;;;;;;14.70;14.20;;;19.20;99.90;;;;;;4953217;29;20444;-49
2021/11/20 05:25:01;;;;;;;13.77;13.37;;;19.30;99.90;;;;;;4953258;29;20813;-54
2021/11/20 05:27:27;;;;;;;14.70;14.10;;;19.20;99.90;;;;;;4952958;29;20535;-57
2021/11/20 05:29:59;;;;;;;15.23;14.60;;;19.30;99.90;;;;;;4953057;29;20508;-58
2021/11/20 05:32:26;;;;;;;14.73;14.13;;;19.30;99.90;;;;;;4953180;29;20484;-58
2021/11/20 05:34:53;;;;;;;14.87;14.37;;;19.30;99.90;;;;;;4953053;29;20954;-51
2021/11/20 05:37:20;;;;;;;14.50;14.00;;;19.20;99.90;;;;;;4952956;29;20833;-54
2021/11/20 05:39:47;;;;;;;14.33;13.83;;;19.20;99.90;;;;;;4952958;29;20820;-55
2021/11/20 05:42:16;;;;;;;14.70;14.20;;;19.20;99.90;;;;;;4953129;29;20444;-57
2021/11/20 05:44:42;;;;;;;14.83;14.23;;;19.30;99.90;;;;;;4953072;29;20537;-57
2021/11/20 05:47:10;;;;;;;13.83;13.40;;;19.20;99.90;;;;;;4952917;29;20471;-55
2021/11/20 05:49:39;;;;;;;14.13;13.63;;;19.30;99.90;;;;;;4952645;29;20455;-58
2021/11/20 05:52:08;;;;;;;14.90;14.40;;;19.20;99.90;;;;;;4956680;28;20968;-49
2021/11/20 05:54:35;;;;;;;13.70;13.30;;;19.60;99.90;;;;;;4972291;28;20822;-50
2021/11/20 05:57:02;;;;;;;14.87;14.37;;;20.10;99.90;;;;;;4972128;28;20487;-58
2021/11/20 05:59:30;;;;;;;14.40;13.90;;;20.50;99.90;;;;;;4975276;28;20831;-51
2021/11/20 06:01:57;;;;;;;14.27;13.87;;;20.70;99.90;;;;;;4975773;28;20450;-56
2021/11/20 06:04:26;;;;;;;13.80;13.40;;;20.80;99.90;;;;;;4975733;28;20451;-53
2021/11/20 06:06:53;;;;;;;14.10;13.60;;;20.80;99.90;;;;;;4975615;28;20440;-58
2021/11/20 06:09:19;;;;;;;14.57;14.07;;;21.00;99.90;;;;;;4975515;28;20452;-57
2021/11/20 06:11:46;;;;;;;14.47;13.97;;;21.00;99.90;;;;;;4975621;28;20452;-55
2021/11/20 06:14:14;;;;;;;14.30;13.83;;;21.10;99.90;;;;;;4975521;28;20448;-50
2021/11/20 06:16:42;;;;;;;13.97;13.47;;;21.10;99.90;;;;;;4975487;28;20497;-50
2021/11/20 06:19:11;;;;;;;14.60;14.10;;;21.20;99.90;;;;;;4975133;28;20479;-50
2021/11/20 06:21:38;;;;;;;14.83;14.23;;;21.20;99.90;;;;;;4975383;28;20459;-50
2021/11/20 06:24:06;;;;;;;14.33;13.83;;;21.20;99.90;;;;;;4975401;28;20451;-49
2021/11/20 06:26:34;;;;;;;15.10;14.50;;;21.20;99.90;;;;;;4975285;28;20515;-51
2021/11/20 06:29:01;;;;;;;14.50;14.00;;;21.20;99.90;;;;;;4974914;28;20907;-51
2021/11/20 06:31:28;;;;;;;15.33;14.83;;;21.20;99.90;;;;;;4975245;28;20443;-50
2021/11/20 06:33:58;;;;;;;14.50;14.00;;;21.20;99.90;;;;;;4975152;28;20451;-49
2021/11/20 06:36:25;;;;;;;15.07;14.47;;;21.20;99.90;;;;;;4975132;28;20514;-50
2021/11/20 06:38:52;;;;;;;14.70;14.20;;;21.20;99.80;;;;;;4974826;28;20554;-49
2021/11/20 06:41:19;;;;;;;14.27;13.77;;;21.20;99.80;;;;;;4975001;28;20463;-51
2021/11/20 06:43:45;;;;;;;15.47;14.97;;;21.20;99.60;;;;;;4974996;28;20455;-50
2021/11/20 06:46:15;;;;;;;16.20;15.50;;;21.20;99.50;;;;;;4974898;28;20448;-50
2021/11/20 06:48:43;;;;;;;17.50;16.70;;;21.20;99.60;;;;;;4974644;28;20468;-54
2021/11/20 06:51:12;;;;;;;16.00;15.40;;;21.20;99.50;;;;;;4974919;28;20448;-53
2021/11/20 06:53:40;;;;;;;14.97;14.37;;;21.10;99.50;;;;;;4974688;28;20444;-50
2021/11/20 06:56:12;;;;;;;14.50;14.00;;;21.10;99.50;;;;;;4974741;28;20484;-50
2021/11/20 07:01:24;;;;;;;10.57;10.17;;;21.10;99.60;;;;;;4974840;28;20419;-50
2021/11/20 07:03:54;;;;;;;11.27;10.87;;;21.10;99.50;;;;;;4974526;28;20829;-52
2021/11/20 07:06:24;;;;;;;11.50;10.70;;;21.00;99.60;;;;;;4974613;28;20451;-50
2021/11/20 07:08:53;;;;;;;11.40;10.90;;;20.90;99.70;;;;;;4973887;28;20475;-52
2021/11/20 07:11:20;;;;;;;11.63;11.13;;;21.00;99.80;;;;;;4974252;28;20772;-49
2021/11/20 07:13:49;;;;;;;10.43;10.13;;;21.00;99.60;;;;;;4974465;28;20452;-51
2021/11/20 07:16:16;;;;;;;10.23;9.83;;;21.00;99.60;;;;;;4974265;28;21001;-52
2021/11/20 07:18:43;;;;;;;10.80;10.40;;;20.90;99.80;;;;;;4974075;28;20977;-51
2021/11/20 07:21:11;;;;;;;10.20;9.87;;;20.90;99.90;;;;;;4967263;28;20466;-51
2021/11/20 07:23:40;;;;;;;10.13;9.83;;;20.90;99.90;;;;;;4962524;28;20459;-51
2021/11/20 07:26:10;;;;;;;12.40;11.80;;;21.00;99.70;;;;;;4962344;28;20463;-58
2021/11/20 07:28:38;;;;;;;14.03;13.13;;;21.00;99.10;;;;;;4961979;28;20588;-61
2021/11/20 07:31:05;;;;;;;17.60;16.40;;;20.90;98.90;;;;;;4962341;28;20462;-58
2021/11/20 07:33:33;;;;;;;14.93;14.13;;;20.90;98.50;;;;;;4962219;28;20950;-58
2021/11/20 07:36:03;;;;;;;15.40;14.40;;;20.90;98.30;;;;;;4962201;28;20530;-55
2021/11/20 07:38:33;;;;;;;14.70;13.70;;;20.90;98.10;;;;;;4962141;28;20554;-57
2021/11/20 07:41:02;;;;;;;15.03;14.13;;;20.90;98.00;;;;;;4962204;28;20447;-53
2021/11/20 07:43:29;;;;;;;17.27;16.07;;;20.90;97.80;;;;;;4961979;28;20452;-55
2021/11/20 07:45:56;;;;;;;23.30;21.27;;;20.80;97.50;;;;;;4962099;28;20470;-52
2021/11/20 07:48:26;;;;;;;23.77;21.57;;;20.20;94.70;;;;;;4961874;28;20944;-54
2021/11/20 07:50:55;;;;;;;23.83;21.63;;;19.80;95.20;;;;;;4961778;28;20462;-52
2021/11/20 07:53:24;;;;;;;18.53;17.10;;;19.20;96.00;;;;;;4948086;28;20456;-48
2021/11/20 07:55:51;;;;;;;16.23;15.23;;;19.10;99.90;;;;;;4942907;29;20547;-54
2021/11/20 07:58:22;;;;;;;17.43;16.33;;;19.50;99.90;;;;;;4942532;29;20499;-52
2021/11/20 08:00:50;;;;;;;15.27;14.37;;;19.80;99.90;;;;;;4942562;29;20556;-51
2021/11/20 08:03:18;;;;;;;13.77;12.97;;;19.90;99.90;;;;;;4942435;29;20452;-52
2021/11/20 08:05:45;;;;;;;13.47;12.60;;;20.00;99.90;;;;;;4942260;29;20453;-53
2021/11/20 08:08:12;;;;;;;12.80;12.30;;;20.10;99.90;;;;;;4942295;29;20480;-56
2021/11/20 08:10:40;;;;;;;12.93;12.23;;;20.10;99.90;;;;;;4942040;29;20456;-54
2021/11/20 08:13:07;;;;;;;12.90;12.27;;;20.10;99.90;;;;;;4942356;29;20452;-54
2021/11/20 08:15:36;;;;;;;12.90;12.30;;;20.20;99.90;;;;;;4942204;29;20456;-50
2021/11/20 08:18:03;;;;;;;12.10;11.53;;;20.20;99.90;;;;;;4942074;29;20499;-50
2021/11/20 08:20:34;;;;;;;12.57;12.03;;;20.20;99.90;;;;;;4941866;28;20550;-49
2021/11/20 08:23:02;;;;;;;12.83;12.23;;;20.20;99.90;;;;;;4942143;29;21286;-50
2021/11/20 08:25:29;;;;;;;11.87;11.43;;;20.30;99.90;;;;;;4942158;29;20933;-50
2021/11/20 08:27:57;;;;;;;12.03;11.53;;;20.30;99.90;;;;;;4941872;29;20481;-49
2021/11/20 08:30:27;;;;;;;11.23;10.83;;;20.30;99.90;;;;;;4941856;29;20457;-50
2021/11/20 08:32:57;;;;;;;11.00;10.60;;;20.30;99.90;;;;;;4941926;29;20814;-55
2021/11/20 08:35:24;;;;;;;11.93;11.53;;;20.40;99.90;;;;;;4941839;29;20452;-50
2021/11/20 08:37:51;;;;;;;12.30;11.80;;;20.30;99.90;;;;;;4941774;29;21061;-48
2021/11/20 08:40:20;;;;;;;10.97;10.47;;;20.30;99.90;;;;;;4942063;29;20838;-51
2021/11/20 08:42:48;;;;;;;11.80;11.20;;;20.30;99.90;;;;;;4941939;29;20981;-50
2021/11/20 08:45:18;;;;;;;11.67;11.13;;;20.40;99.90;;;;;;4941754;29;20453;-51
2021/11/20 08:47:47;;;;;;;11.43;10.93;;;20.40;99.90;;;;;;4941477;29;20579;-52
2021/11/20 08:50:20;;;;;;;11.50;11.00;;;20.40;99.90;;;;;;4941574;29;20460;-50
2021/11/20 08:52:47;;;;;;;11.90;11.40;;;20.40;99.90;;;;;;4951054;28;20451;-55
2021/11/20 08:55:15;;;;;;;11.40;10.90;;;20.40;99.90;;;;;;4961054;28;20502;-50
2021/11/20 08:57:43;;;;;;;12.23;11.83;;;20.40;99.90;;;;;;4960982;28;20807;-47
2021/11/20 09:00:15;;;;;;;12.03;11.40;;;20.40;99.90;;;;;;4960627;28;20543;-48
2021/11/20 09:02:48;;;;;;;12.20;11.70;;;20.50;99.90;;;;;;4960840;28;20452;-53
2021/11/20 09:05:19;;;;;;;11.87;11.30;;;20.50;99.90;;;;;;4960921;28;20460;-53
2021/11/20 09:07:51;;;;;;;11.13;10.67;;;20.50;99.90;;;;;;4960798;28;20513;-54
2021/11/20 09:10:23;;;;;;;11.53;11.03;;;20.50;99.90;;;;;;4960666;28;20463;-53
2021/11/20 09:12:54;;;;;;;11.33;10.83;;;20.50;99.90;;;;;;4960854;28;20459;-50
2021/11/20 09:15:24;;;;;;;11.90;11.40;;;20.50;99.90;;;;;;4960676;28;20451;-48
2021/11/20 09:17:52;;;;;;;11.77;11.17;;;20.50;99.90;;;;;;4960731;28;20495;-49
2021/11/20 09:20:22;;;;;;;11.50;11.10;;;20.50;99.90;;;;;;4960614;28;21417;-49
2021/11/20 09:22:49;;;;;;;10.53;10.03;;;20.60;99.90;;;;;;4960763;28;21259;-50
2021/11/20 09:25:17;;;;;;;10.57;10.27;;;20.50;99.90;;;;;;4960535;28;20554;-52
2021/11/20 09:27:44;;;;;;;11.70;11.20;;;20.50;99.90;;;;;;4960516;28;20484;-48
2021/11/20 09:30:14;;;;;;;11.40;10.80;;;20.50;99.90;;;;;;4960374;28;20466;-52
2021/11/20 09:32:41;;;;;;;11.00;10.50;;;20.50;99.90;;;;;;4961274;28;20463;-48
2021/11/20 09:35:09;;;;;;;10.47;10.07;;;20.50;99.90;;;;;;4964490;28;20967;-56
2021/11/20 09:37:38;;;;;;;10.83;10.30;;;20.60;99.90;;;;;;4964092;28;20933;-52
2021/11/20 09:40:06;;;;;;;11.73;11.13;;;20.50;99.90;;;;;;4964446;28;20494;-49
2021/11/20 09:42:38;;;;;;;10.67;10.27;;;20.50;99.90;;;;;;4964227;28;20455;-50
2021/11/20 09:45:10;;;;;;;10.53;10.03;;;20.50;99.90;;;;;;4964205;28;21004;-52
2021/11/20 09:47:42;;;;;;;12.20;11.67;;;20.60;99.90;;;;;;4970605;28;20463;-54
2021/11/20 09:50:15;;;;;;;10.30;9.90;;;20.60;99.90;;;;;;4974661;28;20812;-57
2021/11/20 09:52:45;;;;;;;12.23;11.67;;;20.60;99.90;;;;;;4967215;28;20507;-56
2021/11/20 09:55:16;;;;;;;10.80;10.30;;;20.70;99.90;;;;;;4956657;29;20942;-58
2021/11/20 09:57:47;;;;;;;10.70;10.30;;;20.70;99.90;;;;;;4960552;28;20573;-52
2021/11/20 10:00:41;;;;;;;10.50;10.10;;;20.70;99.90;;;;;;4964137;28;20484;-59
2021/11/20 10:03:12;;;;;;;11.03;10.73;;;20.50;99.90;;;;;;4956542;29;20532;-59
2021/11/20 10:05:42;;;;;;;11.73;11.13;;;20.40;99.90;;;;;;4956442;29;20854;-58
2021/11/20 10:08:14;;;;;;;11.30;10.80;;;20.40;99.90;;;;;;4956244;29;20536;-58
2021/11/20 10:10:45;;;;;;;11.57;11.17;;;20.30;99.90;;;;;;4955810;29;20757;-56
2021/11/20 10:13:16;;;;;;;10.47;10.17;;;20.30;99.90;;;;;;4955991;29;20456;-55
2021/11/20 10:15:46;;;;;;;11.07;10.67;;;20.30;99.90;;;;;;4956272;29;20476;-59
2021/11/20 10:18:23;;;;;;;12.27;11.80;;;20.20;99.90;;;;;;4956164;29;20530;-59
2021/11/20 10:20:53;;;;;;;11.20;10.70;;;20.20;99.90;;;;;;4955945;29;20455;-53
2021/11/20 10:23:38;;;;;;;9.73;9.43;;;20.20;99.90;;;;;;4956135;29;20512;-54
2021/11/20 10:26:14;;;;;;;10.00;9.70;;;20.20;99.90;;;;;;4956146;29;20475;-58
2021/11/20 10:29:02;;;;;;;10.53;10.23;;;20.10;99.90;;;;;;5052926;22;21046;-48
2021/11/20 10:31:32;;;;;;;10.57;10.27;;;20.10;99.90;;;;;;5074102;28;20804;-55
2021/11/20 10:34:03;;;;;;;11.77;11.23;;;20.10;99.90;;;;;;5074198;28;20532;-50
2021/11/20 10:36:34;;;;;;;10.80;10.47;;;20.10;99.90;;;;;;5073937;28;20512;-49
2021/11/20 10:39:09;;;;;;;10.70;10.30;;;20.10;99.90;;;;;;5073481;28;20570;-48
2021/11/20 10:41:43;;;;;;;9.77;9.47;;;20.10;99.90;;;;;;5073838;28;20469;-55
2021/11/20 10:44:18;;;;;;;10.63;10.20;;;20.10;99.90;;;;;;5073673;28;20443;-50
2021/11/20 10:46:55;;;;;;;11.53;11.13;;;20.00;99.90;;;;;;5072366;28;20454;-52
2021/11/20 10:49:53;;;;;;;10.43;10.03;;;20.20;99.90;;;;;;5033473;28;20884;-48
2021/11/20 10:52:47;;;;;;;10.53;9.87;;;20.20;99.90;;;;;;5033476;28;20925;-51
2021/11/20 10:55:26;;;;;;;10.90;10.40;;;20.20;99.90;;;;;;5033588;28;20938;-50
2021/11/20 10:58:19;;;;;;;10.60;10.20;;;20.20;99.90;;;;;;5033444;28;20488;-50
2021/11/20 11:01:27;;;;;;;10.23;9.90;;;20.20;99.90;;;;;;5031036;28;20507;-48
2021/11/20 11:04:02;;;;;;;9.70;9.30;;;20.20;99.90;;;;;;5012718;28;20581;-51
2021/11/20 11:06:58;;;;;;;9.50;9.20;;;20.20;99.90;;;;;;5039479;28;20444;-51
2021/11/20 11:09:42;;;;;;;11.33;10.93;;;20.20;99.90;;;;;;5047337;28;20460;-49
2021/11/20 11:12:21;;;;;;;12.03;11.63;;;20.20;99.90;;;;;;5032768;28;20460;-49
2021/11/20 11:15:22;;;;;;;11.10;10.70;;;20.20;99.90;;;;;;5045549;28;20447;-48
2021/11/20 11:18:21;;;;;;;11.63;11.13;;;20.20;99.90;;;;;;5052051;28;20492;-50
2021/11/20 11:21:43;;;;;;;10.10;9.70;;;20.20;99.90;;;;;;5051617;28;20470;-48
2021/11/20 11:24:42;;;;;;;11.07;10.57;;;20.20;99.90;;;;;;5052983;28;20444;-49
2021/11/20 11:27:16;;;;;;;11.87;11.30;;;20.20;99.90;;;;;;5039783;28;20441;-48
2021/11/20 11:29:59;;;;;;;10.03;9.73;;;20.20;99.90;;;;;;5036827;28;20445;-49
2021/11/20 11:32:28;;;;;;;11.87;11.37;;;20.30;99.90;;;;;;5033256;28;20815;-48
2021/11/20 11:34:58;;;;;;;11.20;10.90;;;20.30;99.90;;;;;;5041412;28;20448;-49
2021/11/20 11:37:39;;;;;;;10.10;9.80;;;20.30;99.90;;;;;;5052866;28;20515;-50
2021/11/20 11:40:30;;;;;;;10.00;9.70;;;20.20;99.90;;;;;;5052662;28;20479;-50
2021/11/20 11:43:03;;;;;;;10.23;9.87;;;20.20;99.90;;;;;;5045956;28;20448;-48
2021/11/20 11:46:03;;;;;;;11.33;10.93;;;20.20;99.90;;;;;;5042515;28;20507;-50
2021/11/20 11:49:13;;;;;;;10.03;9.70;;;20.20;99.90;;;;;;5032628;28;20460;-48
2021/11/20 11:51:56;;;;;;;10.67;10.27;;;20.20;99.90;;;;;;5025876;28;20814;-52
2021/11/20 11:54:37;;;;;;;11.80;11.40;;;20.20;99.90;;;;;;5032818;28;20543;-48
2021/11/20 11:57:24;;;;;;;10.10;9.80;;;20.20;99.90;;;;;;5032162;28;20452;-50
2021/11/20 12:00:00;;;;;;;11.07;10.57;;;20.20;99.90;;;;;;5032221;28;20441;-48
2021/11/20 12:02:43;;;;;;;10.97;10.53;;;20.20;99.90;;;;;;5035934;28;20436;-48
2021/11/20 12:05:26;;;;;;;10.63;10.30;;;20.20;99.90;;;;;;5052219;28;20949;-48
2021/11/20 12:08:04;;;;;;;11.00;10.50;;;20.20;99.90;;;;;;5052053;28;20460;-48
2021/11/20 12:10:47;;;;;;;9.73;9.43;;;20.20;99.90;;;;;;5051790;28;20440;-48
2021/11/20 12:13:25;;;;;;;10.80;10.40;;;20.20;99.90;;;;;;5051886;28;20489;-47
2021/11/20 12:16:22;;;;;;;8.57;8.27;;;20.20;99.90;;;;;;5050719;28;20615;-47
2021/11/20 12:18:55;;;;;;;10.10;9.80;;;20.20;99.90;;;;;;5040367;28;20225;-48
2021/11/20 12:21:29;;;;;;;10.20;9.90;;;20.20;99.90;;;;;;5051961;28;20913;-49
2021/11/20 12:23:59;;;;;;;10.03;9.63;;;20.20;99.90;;;;;;5051968;28;20505;-48
2021/11/20 12:26:29;;;;;;;10.50;10.10;;;20.30;99.90;;;;;;5051765;28;20445;-48
2021/11/20 12:29:11;;;;;;;8.77;8.40;;;20.20;99.90;;;;;;5051315;28;20551;-48
2021/11/20 12:31:59;;;;;;;10.23;9.93;;;20.20;99.90;;;;;;5051756;28;20448;-47
2021/11/20 12:34:44;;;;;;;8.83;8.53;;;20.20;99.90;;;;;;5051679;28;20467;-48
2021/11/20 12:37:24;;;;;;;9.87;9.53;;;20.10;99.90;;;;;;5051597;28;20997;-47
2021/11/20 12:40:05;;;;;;;10.10;9.60;;;20.20;99.90;;;;;;5040516;28;20848;-47
2021/11/20 12:42:52;;;;;;;10.03;9.37;;;20.20;99.90;;;;;;5031636;28;20453;-50
2021/11/20 12:45:37;;;;;;;10.23;9.83;;;20.50;99.90;;;;;;5031943;28;20441;-48
2021/11/20 12:48:20;;;;;;;10.30;10.00;;;21.00;99.90;;;;;;5031477;28;20463;-49
2021/11/20 12:50:53;;;;;;;9.10;8.80;;;21.30;99.90;;;;;;5031430;28;20453;-48
2021/11/20 12:53:32;;;;;;;9.40;9.10;;;21.70;99.90;;;;;;5031407;28;20455;-50